Time;durP1;ratioP1;P1;durP2;ratioP2;P2;SDS_P1;SDS_P2;PMS_P1;PMS_P2;Temp;Humidity;BMP_temperature;BMP_pressure;BME280_temperature;BME280_humidity;BME280_pressure;Samples;Min_cycle;Max_cycle;Signal;HPM_P1;HPM_P2
2023/08/01 00:01:24;;;;;;;5.28;4.13;;;18.10;96.50;;;;;;5069130;28;20023;-69
2023/08/01 00:03:49;;;;;;;5.57;4.43;;;18.10;96.60;;;;;;5069508;28;20514;-69
2023/08/01 00:06:15;;;;;;;6.10;4.80;;;18.10;96.50;;;;;;5084878;28;20102;-69
2023/08/01 00:08:40;;;;;;;5.35;4.30;;;18.10;96.60;;;;;;5069423;28;20476;-69
2023/08/01 00:11:07;;;;;;;5.50;4.25;;;18.00;96.70;;;;;;5069467;28;20116;-69
2023/08/01 00:13:32;;;;;;;4.22;3.40;;;18.00;96.60;;;;;;5070624;28;20074;-69
2023/08/01 00:15:58;;;;;;;4.38;3.13;;;18.00;96.60;;;;;;5073195;28;20418;-69
2023/08/01 00:18:23;;;;;;;4.65;3.42;;;17.90;96.50;;;;;;5073296;28;20324;-69
2023/08/01 00:20:53;;;;;;;4.47;2.67;;;17.90;96.40;;;;;;5073033;28;20095;-69
2023/08/01 00:23:19;;;;;;;4.05;3.03;;;17.90;96.40;;;;;;5072778;28;20115;-69
2023/08/01 00:25:45;;;;;;;4.22;2.88;;;17.90;96.30;;;;;;5073054;28;20095;-69
2023/08/01 00:28:10;;;;;;;4.38;2.60;;;17.90;96.20;;;;;;5072756;28;20027;-69
2023/08/01 00:30:36;;;;;;;4.55;2.65;;;17.90;96.10;;;;;;5072933;28;20028;-69
2023/08/01 00:33:01;;;;;;;5.72;2.45;;;17.90;96.10;;;;;;5073102;28;20025;-69
2023/08/01 00:35:27;;;;;;;5.70;2.53;;;17.90;96.00;;;;;;5072830;28;20024;-69
2023/08/01 00:37:52;;;;;;;4.80;2.20;;;17.90;96.00;;;;;;5073120;28;20035;-69
2023/08/01 00:40:18;;;;;;;5.45;2.70;;;17.80;95.90;;;;;;5072910;28;20025;-69
2023/08/01 00:42:44;;;;;;;3.40;2.42;;;17.80;95.90;;;;;;5072750;28;20115;-69
2023/08/01 00:45:10;;;;;;;4.00;2.42;;;17.80;95.80;;;;;;5072687;28;20032;-69
2023/08/01 00:47:36;;;;;;;3.38;2.13;;;17.80;95.70;;;;;;5072506;28;20395;-69
2023/08/01 00:50:02;;;;;;;3.42;2.33;;;17.80;95.70;;;;;;5072593;28;20027;-69
2023/08/01 00:52:28;;;;;;;4.90;2.05;;;17.80;95.70;;;;;;5072662;28;20233;-69
2023/08/01 00:54:54;;;;;;;4.30;2.42;;;17.80;95.70;;;;;;5072265;28;20494;-69
2023/08/01 00:57:20;;;;;;;3.80;2.33;;;17.80;95.70;;;;;;5072492;28;20020;-69
2023/08/01 00:59:46;;;;;;;4.38;2.60;;;17.80;95.70;;;;;;5073729;28;20100;-70
2023/08/01 01:02:12;;;;;;;4.97;2.38;;;17.70;95.60;;;;;;5073615;28;20052;-69
2023/08/01 01:04:37;;;;;;;4.05;2.58;;;17.70;95.60;;;;;;5054280;28;20337;-69
2023/08/01 01:07:06;;;;;;;3.85;2.55;;;17.70;95.60;;;;;;5072449;28;20070;-69
2023/08/01 01:09:32;;;;;;;5.00;2.63;;;17.80;95.70;;;;;;5054238;28;20032;-69
2023/08/01 01:11:59;;;;;;;4.45;3.00;;;17.80;95.60;;;;;;5072443;28;20035;-69
2023/08/01 01:14:27;;;;;;;4.85;2.83;;;17.70;95.60;;;;;;5072070;28;20543;-69
2023/08/01 01:16:53;;;;;;;5.63;3.00;;;17.70;95.50;;;;;;5072381;28;20075;-69
2023/08/01 01:19:19;;;;;;;4.75;2.85;;;17.70;95.60;;;;;;5071965;28;20036;-69
2023/08/01 01:21:46;;;;;;;5.47;2.80;;;17.60;95.50;;;;;;5072506;28;20525;-68
2023/08/01 01:24:13;;;;;;;5.28;2.80;;;17.60;95.50;;;;;;5071783;28;20024;-68
2023/08/01 01:26:41;;;;;;;2.90;2.00;;;17.60;95.60;;;;;;5071957;28;20033;-68
2023/08/01 01:29:08;;;;;;;4.78;2.60;;;17.60;95.60;;;;;;5071969;28;20431;-69
2023/08/01 01:31:34;;;;;;;4.55;2.40;;;17.60;95.60;;;;;;5072058;28;20028;-69
2023/08/01 01:34:00;;;;;;;4.50;2.65;;;17.60;95.60;;;;;;5071922;28;20024;-69
2023/08/01 01:36:26;;;;;;;6.28;3.00;;;17.60;95.60;;;;;;5071602;28;20108;-69
2023/08/01 01:38:51;;;;;;;6.20;3.22;;;17.60;95.60;;;;;;5071987;28;20104;-69
2023/08/01 01:41:17;;;;;;;5.50;3.05;;;17.50;95.60;;;;;;5071918;28;20070;-69
2023/08/01 01:43:44;;;;;;;3.42;2.35;;;17.50;95.60;;;;;;5072020;28;20074;-69
2023/08/01 01:46:09;;;;;;;5.53;3.28;;;17.50;95.60;;;;;;5054240;28;20021;-69
2023/08/01 01:48:35;;;;;;;6.15;3.58;;;17.50;95.60;;;;;;5071984;28;20471;-69
2023/08/01 01:51:00;;;;;;;4.93;3.60;;;17.50;95.70;;;;;;5071687;28;20024;-68
2023/08/01 01:53:26;;;;;;;6.38;3.85;;;17.50;95.70;;;;;;5071741;28;20495;-68
2023/08/01 01:55:52;;;;;;;6.25;4.00;;;17.40;95.80;;;;;;5071272;28;20395;-69
2023/08/01 01:58:17;;;;;;;6.03;3.88;;;17.40;95.80;;;;;;5071472;28;20028;-69
2023/08/01 02:00:43;;;;;;;6.72;3.90;;;17.40;95.90;;;;;;5071494;28;20013;-69
2023/08/01 02:03:10;;;;;;;6.03;3.92;;;17.40;95.90;;;;;;5053477;28;20031;-69
2023/08/01 02:05:36;;;;;;;6.78;4.53;;;17.40;96.00;;;;;;5071271;28;20017;-69
2023/08/01 02:08:02;;;;;;;7.10;4.85;;;17.30;95.90;;;;;;5053112;28;20025;-69
2023/08/01 02:10:28;;;;;;;6.18;4.30;;;17.30;96.00;;;;;;5071310;28;20078;-69
2023/08/01 02:12:53;;;;;;;7.30;4.88;;;17.30;96.10;;;;;;5070788;28;20540;-69
2023/08/01 02:15:19;;;;;;;8.30;4.60;;;17.20;96.10;;;;;;5071079;28;20441;-69
2023/08/01 02:17:44;;;;;;;7.80;4.70;;;17.20;96.20;;;;;;5070813;28;20028;-69
2023/08/01 02:20:10;;;;;;;8.63;4.53;;;17.20;96.30;;;;;;5071460;28;20030;-69
2023/08/01 02:22:36;;;;;;;7.55;4.50;;;17.20;96.40;;;;;;5070860;28;20020;-69
2023/08/01 02:25:01;;;;;;;8.40;4.60;;;17.10;96.40;;;;;;5070825;28;20386;-69
2023/08/01 02:27:27;;;;;;;7.05;4.00;;;17.10;96.40;;;;;;5070681;28;20025;-69
2023/08/01 02:29:53;;;;;;;6.43;3.47;;;17.10;96.40;;;;;;5070856;28;20078;-69
2023/08/01 02:32:18;;;;;;;5.47;3.40;;;17.10;96.50;;;;;;5070900;28;20036;-69
2023/08/01 02:34:44;;;;;;;8.43;4.38;;;17.10;96.50;;;;;;5070510;28;20028;-69
2023/08/01 02:37:09;;;;;;;5.82;3.85;;;17.00;96.50;;;;;;5085393;28;20402;-69
2023/08/01 02:39:35;;;;;;;9.23;4.32;;;17.00;96.60;;;;;;5052157;28;20391;-69
2023/08/01 02:42:01;;;;;;;6.63;4.03;;;17.00;96.60;;;;;;5069492;28;20104;-69
2023/08/01 02:44:27;;;;;;;7.57;4.85;;;17.00;96.70;;;;;;5048459;28;20024;-69
2023/08/01 02:46:53;;;;;;;10.88;4.80;;;16.90;96.70;;;;;;5057651;28;20519;-69
2023/08/01 02:49:18;;;;;;;6.65;3.90;;;16.90;96.80;;;;;;5069995;28;20423;-69
2023/08/01 02:51:44;;;;;;;6.93;4.13;;;17.00;96.90;;;;;;5070396;28;20052;-69
2023/08/01 02:54:09;;;;;;;7.00;3.72;;;17.00;96.80;;;;;;5070165;28;20116;-69
2023/08/01 02:56:35;;;;;;;8.23;3.95;;;17.00;96.80;;;;;;5070127;28;20017;-69
2023/08/01 02:59:00;;;;;;;7.63;4.15;;;17.00;96.90;;;;;;5070351;28;20252;-69
2023/08/01 03:01:26;;;;;;;7.00;3.28;;;16.90;96.90;;;;;;5055919;28;20033;-69
2023/08/01 03:03:52;;;;;;;6.30;3.63;;;16.90;96.90;;;;;;5057154;28;20016;-69
2023/08/01 03:06:18;;;;;;;6.63;3.65;;;17.00;97.00;;;;;;5069674;28;20449;-69
2023/08/01 03:08:43;;;;;;;10.20;4.70;;;16.90;96.90;;;;;;5081606;28;20033;-69
2023/08/01 03:11:09;;;;;;;11.18;4.35;;;16.90;96.90;;;;;;5051107;28;20115;-69
2023/08/01 03:13:34;;;;;;;8.43;4.80;;;16.90;97.00;;;;;;5070205;28;20044;-69
2023/08/01 03:16:00;;;;;;;8.88;4.45;;;16.90;97.00;;;;;;5069952;28;20035;-69
2023/08/01 03:18:25;;;;;;;8.95;4.10;;;16.90;97.10;;;;;;5070017;28;20021;-69
2023/08/01 03:20:51;;;;;;;7.47;3.70;;;16.90;97.10;;;;;;5070054;28;20467;-69
2023/08/01 03:23:17;;;;;;;8.18;4.53;;;16.90;97.10;;;;;;5070060;28;20025;-69
2023/08/01 03:25:42;;;;;;;10.32;4.88;;;16.90;97.20;;;;;;5070034;28;20070;-69
2023/08/01 03:28:09;;;;;;;11.18;4.70;;;16.90;97.20;;;;;;5070388;28;20463;-69
2023/08/01 03:30:35;;;;;;;11.00;4.75;;;16.90;97.20;;;;;;5069839;28;20028;-69
2023/08/01 03:33:02;;;;;;;9.00;4.32;;;16.90;97.30;;;;;;5069995;28;20024;-69
2023/08/01 03:35:28;;;;;;;8.52;4.32;;;16.90;97.30;;;;;;5069963;28;20012;-69
2023/08/01 03:37:54;;;;;;;9.88;4.40;;;16.90;97.30;;;;;;5069716;28;20103;-69
2023/08/01 03:40:19;;;;;;;8.93;4.32;;;16.90;97.30;;;;;;5069862;28;20024;-69
2023/08/01 03:42:45;;;;;;;7.03;4.07;;;16.90;97.20;;;;;;5069922;28;20017;-69
2023/08/01 03:45:11;;;;;;;10.27;4.70;;;16.90;97.30;;;;;;5069744;28;20025;-69
2023/08/01 03:47:36;;;;;;;6.63;4.00;;;16.90;97.30;;;;;;5071359;28;20025;-69
2023/08/01 03:50:02;;;;;;;8.38;4.93;;;17.00;97.40;;;;;;5073928;28;20402;-69
2023/08/01 03:52:28;;;;;;;10.95;4.70;;;17.00;97.40;;;;;;5056052;28;20036;-69
2023/08/01 03:54:54;;;;;;;10.38;5.00;;;17.00;97.40;;;;;;5073652;28;20029;-69
2023/08/01 03:57:20;;;;;;;9.77;4.82;;;17.10;97.40;;;;;;5073616;28;20493;-69
2023/08/01 03:59:48;;;;;;;9.88;5.22;;;17.10;97.30;;;;;;5073922;28;20029;-69
2023/08/01 04:02:14;;;;;;;6.63;4.35;;;17.10;97.30;;;;;;5073346;28;20112;-69
2023/08/01 04:04:39;;;;;;;10.57;5.32;;;17.10;97.40;;;;;;5073533;28;20091;-69
2023/08/01 04:07:05;;;;;;;12.00;5.10;;;17.10;97.40;;;;;;5073519;28;20024;-69
2023/08/01 04:09:31;;;;;;;14.68;5.47;;;17.10;97.50;;;;;;5073608;28;20032;-69
2023/08/01 04:11:56;;;;;;;8.85;4.90;;;17.10;97.50;;;;;;5073628;28;20020;-69
2023/08/01 04:14:22;;;;;;;11.02;5.45;;;17.10;97.60;;;;;;5073396;28;20060;-69
2023/08/01 04:16:48;;;;;;;12.38;5.53;;;17.10;97.60;;;;;;5073416;28;20020;-69
2023/08/01 04:19:13;;;;;;;10.57;4.85;;;17.10;97.60;;;;;;5055497;28;20020;-69
2023/08/01 04:21:39;;;;;;;10.10;4.40;;;17.10;97.70;;;;;;5073640;28;20121;-69
2023/08/01 04:24:04;;;;;;;9.77;5.13;;;17.10;97.70;;;;;;5073674;28;20517;-70
2023/08/01 04:26:30;;;;;;;9.70;4.50;;;17.10;97.60;;;;;;5073627;28;20398;-69
2023/08/01 04:28:56;;;;;;;9.30;4.22;;;17.10;97.60;;;;;;5073567;28;20395;-70
2023/08/01 04:31:21;;;;;;;8.38;4.65;;;17.20;97.60;;;;;;5073273;28;20591;-70
2023/08/01 04:33:47;;;;;;;10.95;4.50;;;17.20;97.60;;;;;;5073038;28;20071;-69
2023/08/01 04:36:12;;;;;;;10.88;4.47;;;17.20;97.60;;;;;;5073155;28;20036;-69
2023/08/01 04:38:38;;;;;;;11.38;4.70;;;17.20;97.60;;;;;;5054924;28;20107;-69
2023/08/01 04:41:04;;;;;;;12.48;5.57;;;17.20;97.60;;;;;;5073012;28;20028;-69
2023/08/01 04:43:29;;;;;;;9.98;4.82;;;17.20;97.50;;;;;;5072964;28;20095;-70
2023/08/01 04:45:55;;;;;;;8.40;4.22;;;17.20;97.60;;;;;;5054638;28;20028;-69
2023/08/01 04:48:20;;;;;;;8.82;4.20;;;17.20;97.70;;;;;;5072799;28;20491;-69
2023/08/01 04:50:46;;;;;;;9.52;4.65;;;17.10;97.70;;;;;;5072670;28;20047;-69
2023/08/01 04:53:12;;;;;;;8.00;4.65;;;17.10;97.70;;;;;;5072695;28;20024;-70
2023/08/01 04:55:38;;;;;;;8.00;3.67;;;17.20;97.70;;;;;;5072511;28;20386;-70
2023/08/01 04:58:03;;;;;;;11.27;3.72;;;17.20;97.70;;;;;;5072548;28;20028;-70
2023/08/01 05:00:29;;;;;;;7.10;3.47;;;17.20;97.70;;;;;;5087169;28;20036;-70
2023/08/01 05:02:54;;;;;;;11.82;5.45;;;17.20;97.60;;;;;;5072613;28;20021;-69
2023/08/01 05:05:20;;;;;;;9.73;4.22;;;17.30;97.50;;;;;;5072353;28;20391;-69
2023/08/01 05:07:45;;;;;;;7.85;4.50;;;17.30;97.40;;;;;;5072607;28;20579;-69
2023/08/01 05:10:11;;;;;;;8.15;4.78;;;17.20;97.40;;;;;;5072406;28;20032;-69
2023/08/01 05:12:36;;;;;;;9.05;3.92;;;17.20;97.40;;;;;;5072866;28;20028;-69
2023/08/01 05:15:03;;;;;;;10.50;4.60;;;17.30;97.50;;;;;;5072152;28;20024;-69
2023/08/01 05:17:29;;;;;;;8.88;4.22;;;17.30;97.40;;;;;;5072101;28;20545;-69
2023/08/01 05:19:55;;;;;;;9.82;4.72;;;17.30;97.40;;;;;;5072305;28;20029;-69
2023/08/01 05:22:20;;;;;;;8.38;4.07;;;17.30;97.40;;;;;;5072310;28;20111;-69
2023/08/01 05:24:46;;;;;;;9.18;4.43;;;17.30;97.30;;;;;;5072161;28;20541;-69
2023/08/01 05:27:12;;;;;;;9.45;4.35;;;17.30;97.30;;;;;;5071977;28;20024;-69
2023/08/01 05:29:37;;;;;;;9.55;4.20;;;17.30;97.30;;;;;;5067471;28;20082;-69
2023/08/01 05:32:03;;;;;;;10.52;4.00;;;17.40;97.30;;;;;;5050607;28;20025;-69
2023/08/01 05:34:29;;;;;;;7.47;4.32;;;17.40;97.20;;;;;;5064091;28;20429;-69
2023/08/01 05:36:54;;;;;;;10.23;4.40;;;17.40;97.10;;;;;;5071320;28;20024;-69
2023/08/01 05:39:20;;;;;;;9.48;4.35;;;17.50;97.10;;;;;;5071782;28;20092;-69
2023/08/01 05:41:46;;;;;;;10.30;5.03;;;17.50;97.10;;;;;;5071598;28;20031;-69
2023/08/01 05:44:11;;;;;;;11.30;5.20;;;17.50;97.00;;;;;;5052147;28;20021;-70
2023/08/01 05:46:37;;;;;;;9.38;4.75;;;17.50;97.10;;;;;;5064975;28;20488;-70
2023/08/01 05:49:02;;;;;;;12.43;5.32;;;17.60;97.10;;;;;;5070899;28;20032;-70
2023/08/01 05:51:28;;;;;;;9.38;4.60;;;17.60;97.00;;;;;;5051080;28;20029;-70
2023/08/01 05:53:54;;;;;;;9.35;4.95;;;17.60;97.00;;;;;;5067025;28;20090;-70
2023/08/01 05:56:19;;;;;;;11.75;4.55;;;17.60;96.90;;;;;;5070991;28;20505;-70
2023/08/01 05:58:45;;;;;;;8.25;4.40;;;17.60;96.90;;;;;;5071327;28;20059;-70
2023/08/01 06:01:11;;;;;;;7.32;4.07;;;17.60;96.90;;;;;;5071509;28;20028;-70
2023/08/01 06:03:38;;;;;;;8.13;4.30;;;17.70;97.00;;;;;;5071456;28;20074;-70
2023/08/01 06:06:04;;;;;;;10.85;5.13;;;17.80;96.90;;;;;;5071069;28;20034;-70
2023/08/01 06:08:30;;;;;;;7.63;4.47;;;17.80;96.70;;;;;;5071130;28;20039;-70
2023/08/01 06:10:56;;;;;;;8.98;4.18;;;17.80;96.70;;;;;;5070229;28;20035;-69
2023/08/01 06:13:21;;;;;;;9.20;4.50;;;17.80;96.60;;;;;;5046011;28;20021;-70
2023/08/01 06:15:47;;;;;;;9.52;4.90;;;17.80;96.50;;;;;;5065679;28;20028;-70
2023/08/01 06:18:12;;;;;;;13.95;5.53;;;17.80;96.40;;;;;;5070760;28;20025;-70
2023/08/01 06:20:39;;;;;;;7.03;4.00;;;17.80;96.30;;;;;;5070860;28;20444;-70
2023/08/01 06:23:04;;;;;;;9.07;4.22;;;17.80;96.30;;;;;;5071063;28;20036;-70
2023/08/01 06:25:30;;;;;;;7.88;4.13;;;17.80;96.20;;;;;;5070812;28;20017;-70
2023/08/01 06:27:55;;;;;;;10.75;4.30;;;17.90;96.50;;;;;;5070730;28;20025;-69
2023/08/01 06:30:21;;;;;;;8.85;4.10;;;18.40;95.60;;;;;;5070636;28;20036;-70
2023/08/01 06:32:53;;;;;;;10.18;4.22;;;18.50;94.80;;;;;;5087479;27;20460;-69
2023/08/01 06:35:20;;;;;;;7.97;4.07;;;18.50;94.60;;;;;;5087200;28;20449;-70
2023/08/01 06:37:46;;;;;;;11.32;4.50;;;18.30;94.70;;;;;;5087605;28;20017;-70
2023/08/01 06:40:12;;;;;;;11.10;4.63;;;18.30;94.90;;;;;;5087423;28;20020;-70
2023/08/01 06:42:38;;;;;;;9.48;4.20;;;18.70;94.50;;;;;;5087475;28;20024;-70
2023/08/01 06:45:04;;;;;;;8.88;3.85;;;18.90;94.10;;;;;;5087337;28;20030;-69
2023/08/01 06:47:30;;;;;;;7.30;3.33;;;18.90;93.90;;;;;;5087433;28;20027;-70
2023/08/01 06:49:55;;;;;;;9.93;4.22;;;18.90;93.80;;;;;;5087286;28;20040;-69
2023/08/01 06:52:21;;;;;;;7.07;4.05;;;18.80;93.80;;;;;;5087240;28;20028;-69
2023/08/01 06:54:47;;;;;;;9.85;4.47;;;18.80;93.60;;;;;;5087514;28;20017;-69
2023/08/01 06:57:12;;;;;;;8.70;4.10;;;18.60;93.60;;;;;;5087237;28;20020;-69
2023/08/01 06:59:38;;;;;;;8.70;3.42;;;18.60;93.80;;;;;;5087488;28;20107;-69
2023/08/01 07:02:04;;;;;;;7.78;3.78;;;18.60;93.90;;;;;;5087400;28;20024;-69
2023/08/01 07:04:29;;;;;;;10.65;4.93;;;18.60;93.90;;;;;;5087620;28;20501;-70
2023/08/01 07:06:55;;;;;;;13.50;4.28;;;18.60;93.90;;;;;;5087081;28;20032;-70
2023/08/01 07:09:21;;;;;;;8.10;3.63;;;18.60;93.90;;;;;;5085742;28;20021;-70
2023/08/01 07:11:46;;;;;;;8.00;3.90;;;18.80;93.80;;;;;;5086768;28;20032;-70
2023/08/01 07:14:12;;;;;;;7.43;3.80;;;18.80;93.60;;;;;;5086905;28;20020;-70
2023/08/01 07:16:37;;;;;;;6.68;3.53;;;18.80;93.60;;;;;;5086710;28;20024;-70
2023/08/01 07:19:03;;;;;;;8.25;3.40;;;18.90;93.40;;;;;;5086807;28;20024;-70
2023/08/01 07:21:28;;;;;;;10.55;3.65;;;18.90;93.30;;;;;;5086538;28;20059;-70
2023/08/01 07:23:54;;;;;;;7.65;3.55;;;19.00;93.30;;;;;;5086698;28;20024;-70
2023/08/01 07:26:20;;;;;;;10.18;3.97;;;19.00;93.20;;;;;;5086478;28;20475;-70
2023/08/01 07:28:45;;;;;;;7.57;3.50;;;18.90;93.10;;;;;;5086595;28;20060;-70
2023/08/01 07:31:11;;;;;;;6.10;3.08;;;18.90;93.00;;;;;;5086455;28;20032;-70
2023/08/01 07:33:37;;;;;;;6.72;3.00;;;18.80;93.00;;;;;;5086289;28;20055;-70
2023/08/01 07:36:03;;;;;;;8.55;3.13;;;18.80;93.10;;;;;;5086406;28;20031;-70
2023/08/01 07:38:31;;;;;;;8.15;3.40;;;19.00;93.10;;;;;;5086442;28;20052;-70
2023/08/01 07:40:57;;;;;;;8.68;3.60;;;19.10;92.70;;;;;;5086374;28;20028;-70
2023/08/01 07:43:23;;;;;;;5.82;2.78;;;19.30;92.50;;;;;;5078120;28;20028;-70
2023/08/01 07:45:50;;;;;;;5.57;2.92;;;19.50;92.10;;;;;;5072893;28;20048;-70
2023/08/01 07:48:16;;;;;;;10.35;3.95;;;19.70;91.70;;;;;;5073050;28;20052;-70
2023/08/01 07:50:41;;;;;;;7.63;3.05;;;19.90;91.30;;;;;;5072591;28;20455;-70
2023/08/01 07:53:07;;;;;;;7.13;2.80;;;19.90;90.90;;;;;;5072574;28;20025;-70
2023/08/01 07:55:36;;;;;;;5.72;2.58;;;20.10;90.60;;;;;;5072579;28;20064;-70
2023/08/01 07:58:01;;;;;;;6.90;2.80;;;20.10;90.30;;;;;;5072628;28;20070;-70
2023/08/01 08:00:27;;;;;;;4.72;2.38;;;20.30;90.10;;;;;;5072392;28;20025;-70
2023/08/01 08:02:53;;;;;;;5.30;2.60;;;20.50;89.90;;;;;;5072505;28;20028;-70
2023/08/01 08:05:19;;;;;;;6.45;2.83;;;20.60;88.40;;;;;;5072583;28;20029;-70
2023/08/01 08:07:44;;;;;;;6.28;2.90;;;20.70;87.00;;;;;;5072309;28;20029;-70
2023/08/01 08:10:10;;;;;;;7.80;2.80;;;20.70;86.00;;;;;;5072292;28;20046;-70
2023/08/01 08:12:36;;;;;;;6.30;2.80;;;20.60;85.80;;;;;;5072432;28;20030;-70
2023/08/01 08:15:02;;;;;;;6.35;2.83;;;20.60;85.30;;;;;;5072152;28;20024;-70
2023/08/01 08:17:28;;;;;;;4.03;2.25;;;20.50;85.30;;;;;;5072331;28;20047;-70
2023/08/01 08:19:53;;;;;;;5.35;2.30;;;20.40;85.70;;;;;;5071976;28;20434;-70
2023/08/01 08:22:19;;;;;;;6.25;2.20;;;20.30;86.30;;;;;;5072206;28;20418;-70
2023/08/01 08:24:44;;;;;;;5.72;2.40;;;20.20;86.60;;;;;;5072285;28;20028;-70
2023/08/01 08:27:10;;;;;;;5.78;2.30;;;20.20;87.00;;;;;;5072183;28;20046;-70
2023/08/01 08:29:35;;;;;;;7.03;2.58;;;20.00;87.50;;;;;;5072122;28;20074;-70
2023/08/01 08:32:01;;;;;;;6.32;2.58;;;19.90;87.70;;;;;;5071621;28;20542;-70
2023/08/01 08:34:27;;;;;;;4.82;2.15;;;19.80;88.10;;;;;;5072019;28;20104;-71
2023/08/01 08:36:52;;;;;;;4.63;2.50;;;19.90;89.00;;;;;;5071771;28;20378;-71
2023/08/01 08:39:18;;;;;;;6.07;2.53;;;20.10;89.30;;;;;;5071860;28;20025;-70
2023/08/01 08:41:48;;;;;;;6.10;2.67;;;20.30;88.90;;;;;;5072026;28;20027;-70
2023/08/01 08:44:20;;;;;;;5.95;2.40;;;20.50;88.70;;;;;;5070559;28;20398;-70
2023/08/01 08:46:52;;;;;;;5.07;2.42;;;20.70;87.80;;;;;;5071774;28;20083;-70
2023/08/01 08:49:21;;;;;;;4.25;2.25;;;21.00;87.10;;;;;;5071777;28;20163;-70
2023/08/01 08:51:47;;;;;;;5.85;2.20;;;21.20;86.60;;;;;;5071257;28;20119;-70
2023/08/01 08:54:15;;;;;;;5.43;2.40;;;21.50;85.80;;;;;;5070753;28;20024;-70
2023/08/01 08:56:41;;;;;;;5.50;2.50;;;21.40;84.40;;;;;;5071096;28;20031;-70
2023/08/01 08:59:10;;;;;;;5.47;2.25;;;21.20;83.70;;;;;;5071600;28;20024;-70
2023/08/01 09:01:36;;;;;;;7.45;2.97;;;21.00;83.90;;;;;;5071315;28;20028;-70
2023/08/01 09:04:02;;;;;;;4.85;2.25;;;20.90;83.30;;;;;;5070099;28;20030;-70
2023/08/01 09:06:34;;;;;;;4.32;2.10;;;21.00;83.70;;;;;;5071075;28;20422;-70
2023/08/01 09:09:10;;;;;;;6.60;2.63;;;21.00;83.70;;;;;;5071367;28;20033;-70
2023/08/01 09:11:52;;;;;;;3.38;1.98;;;20.90;83.60;;;;;;5071002;28;20032;-70
2023/08/01 09:14:19;;;;;;;6.05;2.10;;;21.10;83.70;;;;;;5071161;28;20113;-70
2023/08/01 09:16:47;;;;;;;5.88;2.15;;;21.30;82.00;;;;;;5069250;28;20020;-70
2023/08/01 09:19:17;;;;;;;3.70;1.70;;;21.40;79.80;;;;;;5068841;28;20028;-70
2023/08/01 09:21:43;;;;;;;5.00;2.00;;;21.50;78.60;;;;;;5070913;28;20143;-70
2023/08/01 09:24:14;;;;;;;4.55;2.10;;;21.50;77.80;;;;;;5070606;28;20016;-70
2023/08/01 09:26:40;;;;;;;4.60;1.90;;;21.50;76.70;;;;;;5070859;28;20502;-70
2023/08/01 09:29:06;;;;;;;5.72;1.90;;;21.50;76.20;;;;;;5070710;28;20032;-70
2023/08/01 09:31:40;;;;;;;7.68;2.00;;;21.50;74.90;;;;;;5070878;28;20421;-71
2023/08/01 09:34:17;;;;;;;5.25;2.15;;;21.40;73.60;;;;;;5070799;28;20021;-71
2023/08/01 09:36:43;;;;;;;2.88;1.65;;;21.40;73.90;;;;;;5070876;28;20354;-71
2023/08/01 09:39:17;;;;;;;3.78;1.83;;;21.40;74.60;;;;;;5071068;28;20021;-70
2023/08/01 09:41:43;;;;;;;3.53;1.73;;;21.40;74.90;;;;;;5070834;28;20039;-71
2023/08/01 09:44:16;;;;;;;4.97;1.63;;;21.40;74.80;;;;;;5070967;28;20025;-68
2023/08/01 09:46:43;;;;;;;5.00;1.70;;;21.30;75.10;;;;;;5070458;28;20107;-68
2023/08/01 09:49:12;;;;;;;4.97;1.55;;;21.20;75.20;;;;;;5070577;28;20020;-70
2023/08/01 09:51:48;;;;;;;4.78;1.60;;;21.20;75.70;;;;;;5070579;28;20395;-70
2023/08/01 09:54:15;;;;;;;4.28;2.03;;;21.10;75.60;;;;;;5070194;28;20286;-70
2023/08/01 09:56:44;;;;;;;5.47;1.70;;;21.10;74.40;;;;;;5069142;28;20464;-70
2023/08/01 09:59:11;;;;;;;7.35;1.80;;;21.10;74.20;;;;;;5070575;28;20096;-70
2023/08/01 10:01:38;;;;;;;3.60;1.80;;;21.10;74.10;;;;;;5070272;28;20499;-70
2023/08/01 10:04:06;;;;;;;4.28;1.70;;;21.30;73.80;;;;;;5070204;28;20025;-70
2023/08/01 10:06:36;;;;;;;3.78;1.67;;;21.40;73.50;;;;;;5070184;28;20487;-70
2023/08/01 10:09:02;;;;;;;4.38;1.80;;;21.40;72.50;;;;;;5070484;28;20058;-70
2023/08/01 10:11:33;;;;;;;3.25;1.50;;;21.50;71.70;;;;;;5070304;28;20020;-70
2023/08/01 10:14:02;;;;;;;2.70;1.50;;;21.60;71.90;;;;;;5068792;28;20605;-70
2023/08/01 10:16:28;;;;;;;5.75;2.13;;;21.80;71.60;;;;;;5070008;28;20020;-71
2023/08/01 10:18:54;;;;;;;6.07;2.13;;;22.00;70.80;;;;;;5070155;28;20021;-70
2023/08/01 10:21:21;;;;;;;4.38;1.70;;;22.10;70.60;;;;;;5069967;28;20099;-70
2023/08/01 10:23:47;;;;;;;3.90;1.60;;;22.20;71.00;;;;;;5070210;28;20056;-70
2023/08/01 10:26:13;;;;;;;5.45;1.88;;;22.50;71.00;;;;;;5069828;28;20055;-70
2023/08/01 10:28:41;;;;;;;4.35;1.70;;;22.60;70.50;;;;;;5070126;28;20025;-70
2023/08/01 10:31:12;;;;;;;4.05;1.83;;;22.60;69.40;;;;;;5068441;28;20033;-70
2023/08/01 10:33:39;;;;;;;3.00;1.42;;;22.60;67.20;;;;;;5070161;28;20021;-71
2023/08/01 10:36:27;;;;;;;4.32;1.60;;;22.40;66.80;;;;;;5069921;28;20529;-70
2023/08/01 10:38:55;;;;;;;3.45;1.70;;;22.40;67.40;;;;;;5070120;28;20066;-70
2023/08/01 10:41:21;;;;;;;6.05;1.80;;;22.50;67.20;;;;;;5069749;28;20017;-70
2023/08/01 10:43:47;;;;;;;5.13;1.80;;;22.60;67.50;;;;;;5069826;28;20107;-71
2023/08/01 10:46:13;;;;;;;3.13;1.42;;;22.70;67.40;;;;;;5070203;28;20513;-70
2023/08/01 10:49:05;;;;;;;4.75;2.00;;;22.90;67.70;;;;;;5070345;28;20466;-70
2023/08/01 10:51:36;;;;;;;;;;;22.90;65.80;;;;;;5069063;28;20127;-70
2023/08/01 10:54:02;;;;;;;4.75;1.80;;;22.90;65.40;;;;;;5069772;28;20377;-70
2023/08/01 10:56:28;;;;;;;5.35;1.85;;;23.00;64.90;;;;;;5069656;28;20021;-70
2023/08/01 10:58:54;;;;;;;5.20;1.95;;;22.90;64.30;;;;;;5069435;28;20032;-70
2023/08/01 11:01:20;;;;;;;4.38;1.50;;;22.90;64.60;;;;;;5070044;28;20025;-70
2023/08/01 11:03:45;;;;;;;3.60;1.60;;;22.90;64.50;;;;;;5069498;28;20077;-71
2023/08/01 11:06:11;;;;;;;3.08;1.58;;;23.10;64.80;;;;;;5069521;28;20028;-71
2023/08/01 11:08:38;;;;;;;3.75;1.40;;;23.30;64.30;;;;;;5068215;28;20025;-70
2023/08/01 11:11:10;;;;;;;5.13;1.80;;;23.40;63.80;;;;;;5069486;28;20429;-70
2023/08/01 11:13:36;;;;;;;3.83;1.73;;;23.50;63.70;;;;;;5067992;28;20391;-71
2023/08/01 11:16:06;;;;;;;3.38;1.77;;;23.70;62.50;;;;;;5069435;28;20032;-71
2023/08/01 11:18:44;;;;;;;3.70;1.45;;;23.60;61.60;;;;;;5071388;28;20107;-71
2023/08/01 11:21:10;;;;;;;3.28;1.60;;;23.50;61.90;;;;;;5073230;28;20443;-71
2023/08/01 11:23:38;;;;;;;4.32;1.65;;;23.50;61.50;;;;;;5073176;28;20103;-70
2023/08/01 11:26:08;;;;;;;5.20;1.70;;;23.40;61.40;;;;;;5072953;28;20032;-71
2023/08/01 11:28:35;;;;;;;3.33;1.50;;;23.30;60.40;;;;;;5073045;28;20024;-70
2023/08/01 11:31:00;;;;;;;3.22;1.27;;;23.20;60.30;;;;;;5072965;28;20069;-70
2023/08/01 11:33:26;;;;;;;3.42;1.50;;;23.30;60.60;;;;;;5072999;28;20103;-70
2023/08/01 11:35:53;;;;;;;3.53;1.50;;;23.30;60.60;;;;;;5072893;28;20021;-70
2023/08/01 11:38:21;;;;;;;3.95;1.52;;;23.40;60.50;;;;;;5073368;28;20017;-70
2023/08/01 11:40:49;;;;;;;2.10;1.40;;;23.50;61.00;;;;;;5072838;28;20020;-71
2023/08/01 11:43:15;;;;;;;3.85;1.50;;;23.60;61.30;;;;;;5071343;28;20032;-71
2023/08/01 11:45:55;;;;;;;4.00;1.60;;;23.70;60.60;;;;;;5067103;28;20021;-70
2023/08/01 11:48:22;;;;;;;2.58;1.27;;;23.70;60.30;;;;;;5072675;28;20390;-71
2023/08/01 11:50:48;;;;;;;4.05;1.67;;;23.80;60.00;;;;;;5072195;28;20032;-71
2023/08/01 11:53:21;;;;;;;3.25;1.40;;;23.90;59.70;;;;;;5073012;28;20023;-71
2023/08/01 11:55:47;;;;;;;4.20;1.50;;;23.80;59.90;;;;;;5072293;28;20028;-70
2023/08/01 11:58:14;;;;;;;3.65;1.40;;;23.80;60.10;;;;;;5072756;28;20498;-70
2023/08/01 12:00:40;;;;;;;5.68;1.70;;;23.90;60.00;;;;;;5072873;28;20078;-70
2023/08/01 12:03:13;;;;;;;2.30;1.40;;;24.00;59.00;;;;;;5070719;28;20035;-70
2023/08/01 12:05:45;;;;;;;5.03;1.45;;;24.00;58.50;;;;;;5072397;28;20033;-70
2023/08/01 12:08:11;;;;;;;;;;;24.20;57.90;;;;;;5072932;28;20023;-71
2023/08/01 12:10:45;;;;;;;4.45;1.38;;;24.20;58.10;;;;;;5072737;28;20270;-70
2023/08/01 12:13:21;;;;;;;3.05;1.35;;;24.10;57.90;;;;;;5072561;28;20024;-70
2023/08/01 12:15:48;;;;;;;2.25;1.40;;;24.00;58.20;;;;;;5072048;28;20063;-70
2023/08/01 12:18:25;;;;;;;2.92;1.40;;;23.80;58.30;;;;;;5072471;28;20016;-70
2023/08/01 12:20:50;;;;;;;4.10;1.20;;;23.60;59.10;;;;;;5072143;28;20021;-71
2023/08/01 12:23:16;;;;;;;4.38;1.33;;;23.50;59.30;;;;;;5072261;28;20027;-71
2023/08/01 12:25:42;;;;;;;5.82;1.50;;;23.40;59.10;;;;;;5072149;28;20039;-71
2023/08/01 12:28:07;;;;;;;3.63;1.48;;;23.10;59.60;;;;;;5071992;28;20051;-71
2023/08/01 12:30:33;;;;;;;3.92;1.50;;;23.00;60.40;;;;;;5071883;28;20028;-71
2023/08/01 12:32:59;;;;;;;3.55;1.40;;;23.00;60.70;;;;;;5071676;28;20047;-71
2023/08/01 12:35:25;;;;;;;2.92;1.30;;;22.80;60.60;;;;;;5071955;28;20013;-71
2023/08/01 12:37:52;;;;;;;2.97;1.40;;;22.80;60.90;;;;;;5068325;28;20540;-71
2023/08/01 12:40:17;;;;;;;3.20;1.70;;;22.70;61.00;;;;;;5070649;28;20285;-70
2023/08/01 12:42:43;;;;;;;3.00;1.50;;;22.60;61.30;;;;;;5071575;28;20025;-71